createdAt,value
2023-01-22T00:03:54.729Z,2.10
2023-01-22T00:09:04.071Z,2.10
2023-01-22T00:14:07.693Z,2.20
2023-01-22T00:19:11.435Z,2.10
2023-01-22T00:24:16.251Z,2.10
2023-01-22T00:29:19.579Z,2.10
2023-01-22T00:34:22.865Z,2.10
2023-01-22T00:39:28.018Z,2.00
2023-01-22T00:44:31.692Z,2.00
2023-01-22T00:49:35.171Z,1.90
2023-01-22T00:54:39.838Z,1.90
2023-01-22T00:59:43.135Z,1.90
2023-01-22T01:04:46.996Z,2.00
2023-01-22T01:09:51.583Z,1.90
2023-01-22T01:14:56.791Z,1.90
2023-01-22T01:20:00.394Z,2.00
2023-01-22T01:25:05.825Z,1.90
2023-01-22T01:30:09.898Z,1.90
2023-01-22T01:35:13.455Z,1.90
2023-01-22T01:40:19.061Z,1.90
2023-01-22T01:45:28.981Z,1.80
2023-01-22T01:50:32.706Z,1.90
2023-01-22T01:55:39.943Z,1.80
2023-01-22T02:00:44.761Z,1.80
2023-01-22T02:05:48.199Z,1.80
2023-01-22T02:10:53.944Z,1.80
2023-01-22T02:15:57.297Z,1.70
2023-01-22T02:21:02.275Z,1.60
2023-01-22T02:26:05.744Z,1.50
2023-01-22T02:31:09.230Z,1.30
2023-01-22T02:36:14.374Z,1.20
2023-01-22T02:41:18.133Z,1.30
2023-01-22T02:46:21.939Z,1.30
2023-01-22T02:51:28.003Z,1.30
2023-01-22T02:56:33.884Z,1.30
2023-01-22T03:01:37.533Z,1.10
2023-01-22T03:06:44.202Z,1.10
2023-01-22T03:11:47.727Z,1.10
2023-01-22T03:17:17.775Z,1.10
2023-01-22T03:22:22.688Z,1.20
2023-01-22T03:27:27.905Z,1.20
2023-01-22T03:32:31.837Z,1.20
2023-01-22T03:37:36.845Z,1.20
2023-01-22T03:42:40.803Z,1.20
2023-01-22T03:47:44.462Z,1.30
2023-01-22T03:53:00.396Z,1.40
2023-01-22T03:58:03.994Z,1.40
2023-01-22T04:03:07.513Z,1.50
2023-01-22T04:08:16.328Z,1.50
2023-01-22T04:13:20.351Z,1.50
2023-01-22T04:18:26.902Z,1.50
2023-01-22T04:23:49.968Z,1.40
2023-01-22T04:28:53.419Z,1.50
2023-01-22T04:33:58.893Z,1.50
2023-01-22T04:39:06.290Z,1.60
2023-01-22T04:44:10.385Z,1.50
2023-01-22T04:49:13.889Z,1.60
2023-01-22T04:54:19.933Z,1.60
2023-01-22T04:59:23.905Z,1.60
2023-01-22T05:04:27.383Z,1.60
2023-01-22T05:09:32.727Z,1.60
2023-01-22T05:14:37.094Z,1.60
2023-01-22T05:19:40.681Z,1.60
2023-01-22T05:24:50.613Z,1.60
2023-01-22T05:29:55.193Z,1.60
2023-01-22T05:35:37.074Z,1.60
2023-01-22T05:40:42.914Z,1.70
2023-01-22T05:45:46.676Z,1.70
2023-01-22T05:51:15.519Z,1.80
2023-01-22T05:56:20.408Z,1.60
2023-01-22T06:01:23.910Z,1.70
2023-01-22T06:06:28.989Z,1.70
2023-01-22T06:11:33.956Z,1.80
2023-01-22T06:16:37.411Z,1.80
2023-01-22T06:21:48.125Z,1.80
2023-01-22T06:26:53.035Z,1.80
2023-01-22T06:31:58.136Z,1.70
2023-01-22T06:37:01.537Z,1.80
2023-01-22T06:42:09.763Z,1.70
2023-01-22T06:47:13.204Z,1.70
2023-01-22T06:52:16.745Z,1.70
2023-01-22T06:57:21.835Z,1.70
2023-01-22T07:02:25.245Z,1.70
2023-01-22T07:07:28.560Z,1.70
2023-01-22T07:12:33.525Z,1.70
2023-01-22T07:17:37.537Z,1.70
2023-01-22T07:22:40.819Z,1.70
2023-01-22T07:27:45.452Z,1.60
2023-01-22T07:32:48.691Z,1.70
2023-01-22T07:37:52.741Z,1.70
2023-01-22T07:42:57.482Z,1.80
2023-01-22T07:48:00.930Z,1.80
2023-01-22T07:53:04.278Z,1.80
2023-01-22T07:58:10.447Z,1.80
2023-01-22T08:03:14.683Z,1.90
2023-01-22T08:08:20.579Z,1.90
2023-01-22T08:13:25.372Z,2.00
2023-01-22T08:18:29.199Z,2.00
2023-01-22T08:23:32.509Z,2.00
2023-01-22T08:28:37.171Z,2.10
2023-01-22T08:33:40.534Z,2.10
2023-01-22T08:38:43.781Z,2.10
2023-01-22T08:43:49.353Z,2.20
2023-01-22T08:48:52.650Z,2.20
2023-01-22T08:53:55.889Z,2.10
2023-01-22T08:59:06.339Z,2.20
2023-01-22T09:04:10.917Z,2.20
2023-01-22T09:09:14.508Z,2.20
2023-01-22T09:14:19.195Z,2.20
2023-01-22T09:19:22.510Z,2.30
2023-01-22T09:24:25.954Z,2.20
2023-01-22T09:29:30.517Z,2.20
2023-01-22T09:34:34.275Z,2.20
2023-01-22T09:39:37.494Z,2.30
2023-01-22T09:44:45.361Z,2.30
2023-01-22T09:49:53.867Z,2.30
2023-01-22T09:54:57.165Z,2.40
2023-01-22T10:00:02.622Z,2.40
2023-01-22T10:05:23.786Z,2.40
2023-01-22T10:10:29.105Z,2.40
2023-01-22T10:15:33.767Z,2.40
2023-01-22T10:20:37.928Z,2.50
2023-01-22T10:25:42.666Z,2.40
2023-01-22T10:30:48.920Z,2.40
2023-01-22T10:35:56.641Z,2.40
2023-01-22T10:41:02.299Z,2.40
2023-01-22T10:46:17.262Z,2.40
2023-01-22T10:51:22.377Z,2.40
2023-01-22T10:56:30.250Z,2.50
2023-01-22T11:01:36.513Z,2.50
2023-01-22T11:06:41.921Z,2.50
2023-01-22T11:11:48.976Z,2.50
2023-01-22T11:16:58.512Z,2.50
2023-01-22T11:22:06.407Z,2.40
2023-01-22T11:27:25.626Z,2.40
2023-01-22T11:32:52.409Z,2.50
2023-01-22T11:38:06.805Z,2.50
2023-01-22T11:43:21.877Z,2.40
2023-01-22T11:48:50.077Z,2.50
2023-01-22T11:54:12.267Z,2.60
2023-01-22T11:59:32.044Z,2.50
2023-01-22T12:04:57.045Z,2.60
2023-01-22T12:10:13.475Z,2.40
2023-01-22T12:15:33.307Z,2.60
2023-01-22T12:21:04.513Z,2.50
2023-01-22T12:26:14.473Z,2.40
2023-01-22T12:31:24.176Z,2.60
2023-01-22T12:36:29.653Z,2.50
2023-01-22T12:41:49.222Z,2.50
2023-01-22T12:47:02.039Z,2.60
2023-01-22T12:52:32.341Z,2.70
2023-01-22T12:57:40.735Z,2.60
2023-01-22T13:02:44.035Z,2.60
2023-01-22T13:07:50.161Z,2.60
2023-01-22T13:12:55.647Z,2.60
2023-01-22T13:18:08.199Z,2.60
2023-01-22T13:23:14.958Z,2.50
2023-01-22T13:28:18.981Z,2.40
2023-01-22T13:33:23.393Z,2.40
2023-01-22T13:38:30.817Z,2.40
2023-01-22T13:43:35.095Z,2.50
2023-01-22T13:48:38.683Z,2.50
2023-01-22T13:53:45.837Z,2.50
2023-01-22T13:58:49.754Z,2.50
2023-01-22T14:03:59.354Z,2.50
2023-01-22T14:09:04.309Z,2.40
2023-01-22T14:14:19.630Z,2.40
2023-01-22T14:19:23.208Z,2.40
2023-01-22T14:24:27.822Z,2.40
2023-01-22T14:29:31.122Z,2.50
2023-01-22T14:34:34.448Z,2.40
2023-01-22T14:39:39.157Z,2.30
2023-01-22T14:44:42.646Z,2.30
2023-01-22T14:49:45.939Z,2.30
2023-01-22T14:54:52.040Z,2.30
2023-01-22T14:59:55.438Z,2.40
2023-01-22T15:04:58.738Z,2.20
2023-01-22T15:10:04.707Z,2.30
2023-01-22T15:15:09.200Z,2.20
2023-01-22T15:20:12.604Z,2.30
2023-01-22T15:25:17.988Z,2.20
2023-01-22T15:30:21.693Z,2.20
2023-01-22T15:35:25.159Z,2.20
2023-01-22T15:40:29.819Z,2.20
2023-01-22T15:45:33.252Z,2.30
2023-01-22T15:50:36.681Z,2.20
2023-01-22T15:55:47.810Z,2.20
2023-01-22T16:00:51.048Z,2.20
2023-01-22T16:05:54.332Z,2.20
2023-01-22T16:10:58.994Z,2.20
2023-01-22T16:16:04.619Z,2.30
2023-01-22T16:21:09.075Z,2.20
2023-01-22T16:26:18.415Z,2.30
2023-01-22T16:31:24.887Z,2.30
2023-01-22T16:36:29.771Z,2.30
2023-01-22T16:41:36.460Z,2.30
2023-01-22T16:46:41.222Z,2.30
2023-01-22T16:51:46.650Z,2.20
2023-01-22T16:56:51.314Z,2.20
2023-01-22T17:01:55.228Z,2.20
2023-01-22T17:07:00.047Z,2.20
2023-01-22T17:12:06.156Z,2.20
2023-01-22T17:17:09.636Z,2.10
2023-01-22T17:22:13.342Z,2.00
2023-01-22T17:27:19.146Z,2.00
2023-01-22T17:32:22.834Z,2.10
2023-01-22T17:37:26.069Z,2.10
2023-01-22T17:42:31.014Z,2.00
2023-01-22T17:47:34.302Z,2.00
2023-01-22T17:52:37.727Z,2.00
2023-01-22T17:57:42.304Z,2.00
2023-01-22T18:02:45.618Z,2.10
2023-01-22T18:07:48.926Z,2.00
2023-01-22T18:12:53.518Z,2.00
2023-01-22T18:17:56.815Z,2.00
2023-01-22T18:23:00.251Z,1.90
2023-01-22T18:28:05.636Z,1.90
2023-01-22T18:33:10.146Z,1.90
2023-01-22T18:38:13.413Z,1.80
2023-01-22T18:43:18.633Z,1.80
2023-01-22T18:48:23.112Z,1.80
2023-01-22T18:53:26.732Z,1.80
2023-01-22T18:58:34.017Z,1.70
2023-01-22T19:03:38.362Z,1.70
2023-01-22T19:08:43.010Z,1.70
2023-01-22T19:13:48.816Z,1.70
2023-01-22T19:18:55.313Z,1.80
2023-01-22T19:24:01.714Z,1.70
2023-01-22T19:29:10.992Z,1.70
2023-01-22T19:34:23.163Z,1.70
2023-01-22T19:39:27.161Z,1.70
2023-01-22T19:44:33.885Z,1.70
2023-01-22T19:49:38.010Z,1.70
2023-01-22T19:54:47.263Z,1.70
2023-01-22T19:59:57.310Z,1.70
2023-01-22T20:05:02.502Z,1.70
2023-01-22T20:10:06.712Z,1.70
2023-01-22T20:15:11.967Z,1.70
2023-01-22T20:20:15.796Z,1.80
2023-01-22T20:25:21.917Z,1.80
2023-01-22T20:30:27.554Z,1.80
2023-01-22T20:35:32.088Z,1.80
2023-01-22T20:40:38.705Z,1.80
2023-01-22T20:45:43.751Z,1.80
2023-01-22T20:50:47.157Z,1.70
2023-01-22T20:55:59.396Z,1.80
2023-01-22T21:01:05.739Z,1.90
2023-01-22T21:06:13.568Z,1.80
2023-01-22T21:11:20.231Z,1.90
2023-01-22T21:16:27.284Z,1.90
2023-01-22T21:21:31.935Z,1.80
2023-01-22T21:26:35.384Z,1.90
2023-01-22T21:31:40.128Z,1.90
2023-01-22T21:36:45.584Z,1.90
2023-01-22T21:41:49.820Z,1.90
2023-01-22T21:46:54.537Z,1.90
2023-01-22T21:51:59.568Z,1.90
2023-01-22T21:57:03.895Z,1.80
2023-01-22T22:02:13.613Z,1.90
2023-01-22T22:07:18.041Z,1.80
2023-01-22T22:12:21.474Z,1.90
2023-01-22T22:17:26.116Z,1.90
2023-01-22T22:22:29.682Z,1.90
2023-01-22T22:27:32.992Z,1.90
2023-01-22T22:32:37.960Z,1.90
2023-01-22T22:37:41.157Z,1.90
2023-01-22T22:42:44.722Z,1.90
2023-01-22T22:47:49.284Z,2.00
2023-01-22T22:52:52.540Z,1.90
2023-01-22T22:57:55.783Z,1.80
2023-01-22T23:03:00.342Z,1.80
2023-01-22T23:08:04.282Z,1.80
2023-01-22T23:13:07.579Z,1.90
2023-01-22T23:18:12.335Z,1.90
2023-01-22T23:23:15.942Z,1.90
2023-01-22T23:28:19.882Z,1.90
2023-01-22T23:33:24.621Z,2.00
2023-01-22T23:38:27.920Z,1.90
2023-01-22T23:43:31.837Z,1.90
2023-01-22T23:48:36.435Z,1.90
2023-01-22T23:53:41.648Z,1.90
2023-01-22T23:58:44.912Z,1.90
